createdAt,value
2023-11-12T00:02:17.390Z,100243.53
2023-11-12T00:04:44.800Z,100250.22
2023-11-12T00:07:11.623Z,100242.06
2023-11-12T00:09:40.896Z,100239.91
2023-11-12T00:12:10.475Z,100234.94
2023-11-12T00:14:37.351Z,100231.75
2023-11-12T00:17:04.429Z,100239.22
2023-11-12T00:19:34.078Z,100234.91
2023-11-12T00:22:00.983Z,100232.38
2023-11-12T00:24:29.522Z,100236.69
2023-11-12T00:26:56.218Z,100237.94
2023-11-12T00:29:23.132Z,100237.00
2023-11-12T00:31:50.936Z,100238.97
2023-11-12T00:34:17.889Z,100235.13
2023-11-12T00:36:44.723Z,100237.44
2023-11-12T00:39:11.708Z,100233.94
2023-11-12T00:41:40.210Z,100229.50
2023-11-12T00:44:10.180Z,100228.41
2023-11-12T00:46:37.881Z,100234.72
2023-11-12T00:49:08.542Z,100234.13
2023-11-12T00:51:37.006Z,100234.03
2023-11-12T00:54:04.092Z,100224.69
2023-11-12T00:56:31.329Z,100229.09
2023-11-12T00:58:58.212Z,100230.06
2023-11-12T01:01:25.114Z,100218.84
2023-11-12T01:03:52.152Z,100233.72
2023-11-12T01:06:18.973Z,100227.72
2023-11-12T01:08:46.982Z,100219.34
2023-11-12T01:11:14.561Z,100210.53
2023-11-12T01:13:41.439Z,100216.06
2023-11-12T01:16:08.828Z,100210.34
2023-11-12T01:18:36.811Z,100215.72
2023-11-12T01:21:06.479Z,100211.81
2023-11-12T01:23:33.277Z,100209.56
2023-11-12T01:26:00.118Z,100209.59
2023-11-12T01:28:31.093Z,100206.56
2023-11-12T01:30:58.083Z,100202.09
2023-11-12T01:33:24.892Z,100206.94
2023-11-12T01:35:53.229Z,100205.69
2023-11-12T01:38:20.388Z,100201.66
2023-11-12T01:40:48.970Z,100203.25
2023-11-12T01:43:16.400Z,100200.88
2023-11-12T01:45:44.764Z,100204.53
2023-11-12T01:48:13.372Z,100195.78
2023-11-12T01:50:40.391Z,100194.00
2023-11-12T01:53:07.090Z,100196.59
2023-11-12T01:55:34.189Z,100196.00
2023-11-12T01:58:02.069Z,100193.28
2023-11-12T02:00:29.129Z,100193.13
2023-11-12T02:02:56.899Z,100192.81
2023-11-12T02:05:24.623Z,100186.50
2023-11-12T02:07:52.164Z,100188.59
2023-11-12T02:10:19.070Z,100190.13
2023-11-12T02:12:47.794Z,100197.13
2023-11-12T02:15:16.463Z,100200.69
2023-11-12T02:17:46.694Z,100202.47
2023-11-12T02:20:18.330Z,100197.75
2023-11-12T02:22:45.637Z,100187.78
2023-11-12T02:25:14.863Z,100185.78
2023-11-12T02:27:41.984Z,100185.97
2023-11-12T02:30:13.059Z,100184.25
2023-11-12T02:32:40.625Z,100173.44
2023-11-12T02:35:08.949Z,100178.34
2023-11-12T02:37:36.953Z,100169.91
2023-11-12T02:40:04.456Z,100173.38
2023-11-12T02:42:31.805Z,100170.41
2023-11-12T02:44:58.659Z,100173.09
2023-11-12T02:47:26.988Z,100173.00
2023-11-12T02:50:22.131Z,100177.25
2023-11-12T02:52:49.107Z,100171.41
2023-11-12T02:55:17.994Z,100160.91
2023-11-12T02:57:46.859Z,100168.22
2023-11-12T03:00:15.491Z,100148.66
2023-11-12T03:02:42.701Z,100149.81
2023-11-12T03:05:09.952Z,100150.28
2023-11-12T03:07:37.101Z,100152.28
2023-11-12T03:10:05.282Z,100150.09
2023-11-12T03:12:33.442Z,100144.81
2023-11-12T03:15:00.486Z,100146.94
2023-11-12T03:17:28.248Z,100148.34
2023-11-12T03:19:56.125Z,100142.41
2023-11-12T03:22:23.450Z,100146.41
2023-11-12T03:24:50.157Z,100156.44
2023-11-12T03:27:18.035Z,100143.28
2023-11-12T03:29:45.165Z,100148.97
2023-11-12T03:32:11.919Z,100141.81
2023-11-12T03:34:38.716Z,100137.91
2023-11-12T03:37:05.625Z,100127.25
2023-11-12T03:39:32.517Z,100120.88
2023-11-12T03:41:59.560Z,100115.31
2023-11-12T03:44:26.822Z,100121.50
2023-11-12T03:46:53.729Z,100114.38
2023-11-12T03:49:20.498Z,100121.53
2023-11-12T03:51:48.502Z,100126.13
2023-11-12T03:54:16.407Z,100131.06
2023-11-12T03:56:43.248Z,100129.47
2023-11-12T03:59:10.369Z,100123.72
2023-11-12T04:01:38.147Z,100115.97
2023-11-12T04:04:05.804Z,100119.63
2023-11-12T04:06:32.929Z,100115.97
2023-11-12T04:08:59.774Z,100117.06
2023-11-12T04:11:27.319Z,100109.47
2023-11-12T04:13:54.072Z,100110.88
2023-11-12T04:16:21.032Z,100119.00
2023-11-12T04:18:48.432Z,100118.03
2023-11-12T04:21:15.264Z,100129.47
2023-11-12T04:23:45.213Z,100131.94
2023-11-12T04:26:12.374Z,100134.56
2023-11-12T04:28:39.149Z,100130.72
2023-11-12T04:31:06.559Z,100151.88
2023-11-12T04:33:33.450Z,100147.13
2023-11-12T04:36:00.293Z,100148.03
2023-11-12T04:38:27.053Z,100163.31
2023-11-12T04:40:54.629Z,100156.94
2023-11-12T04:43:21.829Z,100160.56
2023-11-12T04:45:48.679Z,100169.84
2023-11-12T04:48:15.658Z,100171.25
2023-11-12T04:50:42.768Z,100165.06
2023-11-12T04:53:09.829Z,100166.16
2023-11-12T04:55:36.616Z,100164.09
2023-11-12T04:58:05.609Z,100169.50
2023-11-12T05:00:32.448Z,100170.16
2023-11-12T05:02:59.543Z,100172.50
2023-11-12T05:05:26.373Z,100163.88
2023-11-12T05:07:53.100Z,100166.28
2023-11-12T05:10:19.973Z,100167.66
2023-11-12T05:12:46.991Z,100164.00
2023-11-12T05:15:13.967Z,100174.81
2023-11-12T05:17:40.704Z,100173.00
2023-11-12T05:20:08.702Z,100174.00
2023-11-12T05:22:35.395Z,100163.31
2023-11-12T05:25:02.418Z,100162.56
2023-11-12T05:27:29.393Z,100157.22
2023-11-12T05:29:56.380Z,100155.81
2023-11-12T05:32:23.105Z,100156.13
2023-11-12T05:34:51.150Z,100176.13
2023-11-12T05:37:17.883Z,100169.63
2023-11-12T05:39:44.714Z,100171.78
2023-11-12T05:42:11.488Z,100174.66
2023-11-12T05:44:38.253Z,100158.63
2023-11-12T05:47:05.782Z,100167.97
2023-11-12T05:49:32.563Z,100169.44
2023-11-12T05:51:59.401Z,100173.66
2023-11-12T05:54:26.483Z,100184.22
2023-11-12T05:56:53.274Z,100182.97
2023-11-12T05:59:20.026Z,100187.38
2023-11-12T06:01:46.917Z,100174.25
2023-11-12T06:04:13.907Z,100165.94
2023-11-12T06:06:41.353Z,100175.06
2023-11-12T06:09:11.294Z,100183.13
2023-11-12T06:11:39.147Z,100181.22
2023-11-12T06:14:05.871Z,100176.56
2023-11-12T06:16:32.812Z,100175.88
2023-11-12T06:18:59.492Z,100178.94
2023-11-12T06:21:26.469Z,100174.53
2023-11-12T06:23:53.608Z,100171.06
2023-11-12T06:26:22.344Z,100174.69
2023-11-12T06:28:50.040Z,100167.06
2023-11-12T06:31:17.785Z,100174.56
2023-11-12T06:33:45.468Z,100172.53
2023-11-12T06:36:15.071Z,100169.47
2023-11-12T06:38:42.537Z,100166.56
2023-11-12T06:41:11.180Z,100171.66
2023-11-12T06:43:38.359Z,100177.59
2023-11-12T06:46:06.438Z,100175.88
2023-11-12T06:48:33.272Z,100177.91
2023-11-12T06:51:00.482Z,100175.50
2023-11-12T06:53:27.195Z,100179.06
2023-11-12T06:55:54.273Z,100185.94
2023-11-12T06:58:21.298Z,100181.59
2023-11-12T07:00:48.438Z,100188.09
2023-11-12T07:03:15.242Z,100184.25
2023-11-12T07:05:42.947Z,100181.28
2023-11-12T07:08:09.764Z,100184.41
2023-11-12T07:10:39.156Z,100187.41
2023-11-12T07:13:06.554Z,100185.84
2023-11-12T07:15:33.471Z,100194.22
2023-11-12T07:18:00.274Z,100193.78
2023-11-12T07:20:33.577Z,100199.19
2023-11-12T07:23:01.223Z,100203.00
2023-11-12T07:25:28.547Z,100207.44
2023-11-12T07:27:55.444Z,100206.63
2023-11-12T07:30:22.446Z,100199.66
2023-11-12T07:32:49.427Z,100201.84
2023-11-12T07:35:16.240Z,100201.47
2023-11-12T07:37:43.331Z,100201.56
2023-11-12T07:40:12.387Z,100207.41
2023-11-12T07:42:40.382Z,100206.41
2023-11-12T07:45:14.083Z,100208.59
2023-11-12T07:47:44.123Z,100203.78
2023-11-12T07:50:11.152Z,100216.03
2023-11-12T07:52:37.961Z,100207.78
2023-11-12T07:55:06.862Z,100213.06
2023-11-12T07:57:33.994Z,100206.19
2023-11-12T08:00:01.580Z,100204.09
2023-11-12T08:02:40.371Z,100215.91
2023-11-12T08:05:09.592Z,100215.09
2023-11-12T08:07:36.922Z,100216.53
2023-11-12T08:10:06.408Z,100217.16
2023-11-12T08:12:33.370Z,100225.75
2023-11-12T08:15:00.250Z,100232.06
2023-11-12T08:17:27.212Z,100227.38
2023-11-12T08:19:59.481Z,100234.75
2023-11-12T08:22:27.030Z,100234.16
2023-11-12T08:24:56.264Z,100241.75
2023-11-12T08:27:24.051Z,100231.72
2023-11-12T08:29:52.933Z,100244.00
2023-11-12T08:32:19.719Z,100238.09
2023-11-12T08:34:47.142Z,100235.72
2023-11-12T08:37:15.706Z,100236.84
2023-11-12T08:39:42.730Z,100243.56
2023-11-12T08:42:09.665Z,100245.50
2023-11-12T08:44:36.447Z,100247.25
2023-11-12T08:47:14.802Z,100251.88
2023-11-12T08:49:41.662Z,100253.16
2023-11-12T08:52:08.499Z,100245.59
2023-11-12T08:54:35.666Z,100254.91
2023-11-12T08:57:04.387Z,100255.94
2023-11-12T08:59:31.916Z,100253.06
2023-11-12T09:01:58.761Z,100255.69
2023-11-12T09:04:26.492Z,100243.41
2023-11-12T09:06:53.567Z,100249.75
2023-11-12T09:09:20.446Z,100246.09
2023-11-12T09:11:47.269Z,100245.91
2023-11-12T09:14:16.315Z,100246.06
2023-11-12T09:16:45.741Z,100244.13
2023-11-12T09:19:12.715Z,100237.88
2023-11-12T09:21:39.560Z,100241.97
2023-11-12T09:24:07.029Z,100251.00
2023-11-12T09:26:33.741Z,100248.84
2023-11-12T09:29:00.744Z,100255.06
2023-11-12T09:31:28.289Z,100250.41
2023-11-12T09:33:55.095Z,100244.72
2023-11-12T09:36:22.225Z,100236.91
2023-11-12T09:38:50.330Z,100241.97
2023-11-12T09:41:22.785Z,100231.69
2023-11-12T09:43:53.279Z,100247.13
2023-11-12T09:46:21.676Z,100247.44
2023-11-12T09:48:50.462Z,100247.66
2023-11-12T09:51:17.715Z,100243.81
2023-11-12T09:53:49.744Z,100257.63
2023-11-12T09:56:16.546Z,100252.06
2023-11-12T09:58:46.510Z,100241.94
2023-11-12T10:01:14.596Z,100245.00
2023-11-12T10:03:44.235Z,100253.22
2023-11-12T10:06:12.245Z,100257.72
2023-11-12T10:08:39.101Z,100252.69
2023-11-12T10:11:21.408Z,100247.53
2023-11-12T10:13:49.222Z,100248.81
2023-11-12T10:16:32.218Z,100264.69
2023-11-12T10:19:12.837Z,100254.25
2023-11-12T10:21:57.001Z,100270.38
2023-11-12T10:24:25.509Z,100265.00
2023-11-12T10:26:54.632Z,100269.75
2023-11-12T10:29:23.223Z,100281.19
2023-11-12T10:31:50.634Z,100276.00
2023-11-12T10:34:18.404Z,100276.63
2023-11-12T10:37:17.462Z,100287.63
2023-11-12T10:39:45.800Z,100285.06
2023-11-12T10:42:26.619Z,100288.31
2023-11-12T10:44:58.783Z,100295.03
2023-11-12T10:47:31.406Z,100303.16
2023-11-12T10:49:59.581Z,100302.19
2023-11-12T10:52:28.012Z,100299.81
2023-11-12T10:54:59.720Z,100297.75
2023-11-12T10:57:34.156Z,100298.88
2023-11-12T11:00:01.876Z,100301.31
2023-11-12T11:02:34.073Z,100298.88
2023-11-12T11:05:02.142Z,100306.88
2023-11-12T11:07:31.302Z,100307.13
2023-11-12T11:09:59.057Z,100305.00
2023-11-12T11:12:26.420Z,100301.06
2023-11-12T11:14:55.490Z,100295.50
2023-11-12T11:17:39.699Z,100289.88
2023-11-12T11:20:07.458Z,100299.59
2023-11-12T11:22:36.866Z,100301.06
2023-11-12T11:25:33.282Z,100302.44
2023-11-12T11:28:19.979Z,100303.31
2023-11-12T11:31:25.445Z,100301.47
2023-11-12T11:33:52.846Z,100286.44
2023-11-12T11:36:20.512Z,100280.00
2023-11-12T11:39:16.609Z,100278.41
2023-11-12T11:41:49.479Z,100275.03
2023-11-12T11:44:45.635Z,100262.97
2023-11-12T11:47:24.366Z,100261.09
2023-11-12T11:50:14.429Z,100261.75
2023-11-12T11:52:41.829Z,100260.56
2023-11-12T11:55:13.382Z,100257.09
2023-11-12T11:57:47.914Z,100261.66
2023-11-12T12:00:20.669Z,100247.69
2023-11-12T12:02:52.944Z,100253.69
2023-11-12T12:05:34.086Z,100247.91
2023-11-12T12:08:02.035Z,100244.53
2023-11-12T12:10:30.853Z,100249.88
2023-11-12T12:12:57.994Z,100255.19
2023-11-12T12:15:25.037Z,100251.91
2023-11-12T12:17:51.930Z,100247.03
2023-11-12T12:20:18.705Z,100255.19
2023-11-12T12:22:45.523Z,100264.25
2023-11-12T12:25:12.669Z,100256.19
2023-11-12T12:27:51.717Z,100260.03
2023-11-12T12:30:19.416Z,100260.84
2023-11-12T12:32:46.228Z,100258.00
2023-11-12T12:35:22.283Z,100252.97
2023-11-12T12:37:49.088Z,100264.97
2023-11-12T12:40:26.753Z,100271.66
2023-11-12T12:42:54.974Z,100268.53
2023-11-12T12:45:22.638Z,100267.50
2023-11-12T12:47:49.906Z,100272.38
2023-11-12T12:50:33.662Z,100268.28
2023-11-12T12:53:14.528Z,100272.25
2023-11-12T12:55:45.624Z,100275.75
2023-11-12T12:58:13.049Z,100282.78
2023-11-12T13:00:44.678Z,100279.88
2023-11-12T13:03:41.553Z,100282.34
2023-11-12T13:06:13.420Z,100279.63
2023-11-12T13:08:49.009Z,100277.78
2023-11-12T13:11:20.604Z,100267.50
2023-11-12T13:13:47.596Z,100268.63
2023-11-12T13:16:15.213Z,100266.97
2023-11-12T13:18:42.901Z,100266.25
2023-11-12T13:21:11.453Z,100268.53
2023-11-12T13:23:39.935Z,100274.97
2023-11-12T13:26:07.567Z,100286.38
2023-11-12T13:28:37.456Z,100277.34
2023-11-12T13:31:05.917Z,100290.47
2023-11-12T13:33:34.788Z,100283.47
2023-11-12T13:36:04.006Z,100282.13
2023-11-12T13:38:34.845Z,100284.06
2023-11-12T13:41:02.365Z,100286.03
2023-11-12T13:43:30.316Z,100282.31
2023-11-12T13:45:57.335Z,100294.84
2023-11-12T13:48:25.350Z,100282.84
2023-11-12T13:50:54.392Z,100280.03
2023-11-12T13:53:23.925Z,100282.50
2023-11-12T13:55:59.338Z,100287.28
2023-11-12T13:58:28.802Z,100284.38
2023-11-12T14:00:55.837Z,100292.75
2023-11-12T14:03:23.332Z,100287.41
2023-11-12T14:05:50.168Z,100292.06
2023-11-12T14:08:18.468Z,100286.38
2023-11-12T14:10:49.361Z,100283.72
2023-11-12T14:13:16.329Z,100285.72
2023-11-12T14:15:43.041Z,100291.38
2023-11-12T14:18:11.418Z,100286.28
2023-11-12T14:20:38.246Z,100289.22
2023-11-12T14:23:06.457Z,100284.38
2023-11-12T14:25:34.009Z,100286.84
2023-11-12T14:28:01.012Z,100280.66
2023-11-12T14:30:27.825Z,100285.56
2023-11-12T14:32:54.684Z,100286.75
2023-11-12T14:35:24.434Z,100298.19
2023-11-12T14:37:51.432Z,100304.97
2023-11-12T14:40:18.462Z,100304.53
2023-11-12T14:42:46.921Z,100321.28
2023-11-12T14:45:24.947Z,100317.88
2023-11-12T14:47:56.168Z,100327.72
2023-11-12T14:50:23.342Z,100335.41
2023-11-12T14:52:52.096Z,100335.38
2023-11-12T14:55:25.278Z,100332.56
2023-11-12T14:57:58.108Z,100342.56
2023-11-12T15:00:30.010Z,100355.78
2023-11-12T15:02:58.792Z,100347.53
2023-11-12T15:05:26.073Z,100350.91
2023-11-12T15:07:52.994Z,100352.75
2023-11-12T15:10:21.982Z,100358.72
2023-11-12T15:12:49.458Z,100367.47
2023-11-12T15:15:17.196Z,100357.41
2023-11-12T15:17:44.463Z,100369.97
2023-11-12T15:20:14.212Z,100365.03
2023-11-12T15:22:42.898Z,100369.19
2023-11-12T15:25:10.395Z,100372.44
2023-11-12T15:27:37.543Z,100374.63
2023-11-12T15:30:04.897Z,100379.09
2023-11-12T15:32:32.509Z,100381.06
2023-11-12T15:34:59.701Z,100384.91
2023-11-12T15:37:27.150Z,100371.16
2023-11-12T15:39:56.348Z,100369.81
2023-11-12T15:42:25.081Z,100370.50
2023-11-12T15:44:52.027Z,100362.78
2023-11-12T15:47:20.915Z,100368.47
2023-11-12T15:49:48.093Z,100367.88
2023-11-12T15:52:15.148Z,100368.28
2023-11-12T15:54:48.328Z,100351.19
2023-11-12T15:57:16.857Z,100360.66
2023-11-12T15:59:43.685Z,100363.59
2023-11-12T16:02:11.090Z,100357.13
2023-11-12T16:04:38.266Z,100357.91
2023-11-12T16:07:05.682Z,100351.28
2023-11-12T16:09:32.575Z,100339.84
2023-11-12T16:11:59.535Z,100345.78
2023-11-12T16:14:26.464Z,100334.34
2023-11-12T16:16:53.627Z,100334.56
2023-11-12T16:19:20.780Z,100327.09
2023-11-12T16:21:48.444Z,100335.81
2023-11-12T16:24:18.516Z,100345.28
2023-11-12T16:26:45.336Z,100352.38
2023-11-12T16:29:14.228Z,100359.84
2023-11-12T16:31:42.930Z,100348.53
2023-11-12T16:34:10.017Z,100345.81
2023-11-12T16:36:37.027Z,100333.44
2023-11-12T16:39:04.529Z,100333.19
2023-11-12T16:41:31.992Z,100325.94
2023-11-12T16:43:58.820Z,100319.16
2023-11-12T16:46:26.022Z,100322.94
2023-11-12T16:48:52.884Z,100317.09
2023-11-12T16:51:19.877Z,100307.44
2023-11-12T16:53:46.729Z,100312.03
2023-11-12T16:56:13.640Z,100335.31
2023-11-12T16:58:41.084Z,100340.31
2023-11-12T17:01:08.447Z,100337.91
2023-11-12T17:03:36.094Z,100338.41
2023-11-12T17:06:03.294Z,100321.81
2023-11-12T17:08:30.395Z,100338.41
2023-11-12T17:10:57.551Z,100352.56
2023-11-12T17:13:24.487Z,100352.38
2023-11-12T17:15:51.402Z,100342.25
2023-11-12T17:18:18.399Z,100353.75
2023-11-12T17:20:45.309Z,100360.31
2023-11-12T17:23:13.126Z,100381.50
2023-11-12T17:25:40.390Z,100382.25
2023-11-12T17:28:07.327Z,100386.13
2023-11-12T17:30:36.420Z,100371.84
2023-11-12T17:33:04.108Z,100347.91
2023-11-12T17:35:32.428Z,100375.13
2023-11-12T17:37:59.278Z,100382.59
2023-11-12T17:40:26.098Z,100386.91
2023-11-12T17:42:52.909Z,100405.44
2023-11-12T17:45:19.801Z,100411.06
2023-11-12T17:47:46.572Z,100403.53
2023-11-12T17:50:13.443Z,100408.56
2023-11-12T17:52:40.218Z,100411.38
2023-11-12T17:55:07.452Z,100405.16
2023-11-12T17:57:35.973Z,100414.09
2023-11-12T18:00:04.095Z,100417.16
2023-11-12T18:02:41.108Z,100397.91
2023-11-12T18:05:08.223Z,100415.72
2023-11-12T18:07:34.982Z,100410.66
2023-11-12T18:10:03.544Z,100406.00
2023-11-12T18:12:30.455Z,100402.88
2023-11-12T18:14:58.464Z,100395.28
2023-11-12T18:17:26.683Z,100395.63
2023-11-12T18:19:53.542Z,100381.56
2023-11-12T18:22:21.567Z,100360.19
2023-11-12T18:24:49.404Z,100370.50
2023-11-12T18:27:16.641Z,100384.66
2023-11-12T18:29:44.947Z,100377.09
2023-11-12T18:32:11.772Z,100381.38
2023-11-12T18:34:38.750Z,100388.16
2023-11-12T18:37:05.579Z,100381.22
2023-11-12T18:39:32.469Z,100385.06
2023-11-12T18:41:59.900Z,100375.47
2023-11-12T18:44:26.732Z,100371.56
2023-11-12T18:46:53.545Z,100378.34
2023-11-12T18:49:20.880Z,100366.31
2023-11-12T18:51:47.970Z,100366.00
2023-11-12T18:54:16.232Z,100363.22
2023-11-12T18:56:47.401Z,100357.13
2023-11-12T18:59:14.526Z,100374.66
2023-11-12T19:01:43.245Z,100377.34
2023-11-12T19:04:10.207Z,100384.97
2023-11-12T19:06:52.282Z,100381.78
2023-11-12T19:09:19.760Z,100388.69
2023-11-12T19:11:47.848Z,100389.16
2023-11-12T19:14:19.456Z,100393.31
2023-11-12T19:16:47.937Z,100402.25
2023-11-12T19:19:15.620Z,100397.25
2023-11-12T19:21:42.539Z,100404.31
2023-11-12T19:24:11.394Z,100413.97
2023-11-12T19:26:38.537Z,100402.72
2023-11-12T19:29:05.331Z,100396.03
2023-11-12T19:31:34.072Z,100376.66
2023-11-12T19:34:02.043Z,100362.69
2023-11-12T19:36:29.004Z,100370.91
2023-11-12T19:38:55.851Z,100366.63
2023-11-12T19:41:24.620Z,100372.34
2023-11-12T19:43:55.115Z,100373.63
2023-11-12T19:46:22.800Z,100372.50
2023-11-12T19:48:49.651Z,100363.56
2023-11-12T19:51:16.548Z,100345.38
2023-11-12T19:53:43.465Z,100356.53
2023-11-12T19:56:10.381Z,100360.88
2023-11-12T19:58:40.241Z,100386.56
2023-11-12T20:01:07.955Z,100406.03
2023-11-12T20:03:35.809Z,100397.66
2023-11-12T20:06:03.082Z,100418.25
2023-11-12T20:08:29.980Z,100424.56
2023-11-12T20:10:57.104Z,100432.59
2023-11-12T20:13:24.054Z,100417.38
2023-11-12T20:15:52.798Z,100429.56
2023-11-12T20:18:21.834Z,100434.84
2023-11-12T20:20:48.740Z,100431.50
2023-11-12T20:23:15.786Z,100413.31
2023-11-12T20:25:42.606Z,100417.41
2023-11-12T20:28:14.795Z,100428.00
2023-11-12T20:30:45.466Z,100435.38
2023-11-12T20:33:14.272Z,100427.31
2023-11-12T20:35:41.109Z,100426.97
2023-11-12T20:38:12.742Z,100422.38
2023-11-12T20:40:40.109Z,100419.72
2023-11-12T20:43:07.115Z,100416.41
2023-11-12T20:45:34.128Z,100405.63
2023-11-12T20:48:01.525Z,100402.88
2023-11-12T20:50:29.428Z,100389.25
2023-11-12T20:52:58.856Z,100367.88
2023-11-12T20:55:25.936Z,100366.59
2023-11-12T20:57:53.706Z,100358.63
2023-11-12T21:00:22.722Z,100335.31
2023-11-12T21:02:50.748Z,100353.19
2023-11-12T21:05:19.919Z,100347.72
2023-11-12T21:07:49.839Z,100351.41
2023-11-12T21:10:16.828Z,100339.59
2023-11-12T21:12:43.882Z,100338.31
2023-11-12T21:15:13.220Z,100321.78
2023-11-12T21:17:40.370Z,100328.41
2023-11-12T21:20:08.016Z,100324.19
2023-11-12T21:22:37.424Z,100327.28
2023-11-12T21:25:05.082Z,100336.28
2023-11-12T21:27:32.101Z,100352.34
2023-11-12T21:30:00.277Z,100352.38
2023-11-12T21:32:27.164Z,100356.59
2023-11-12T21:34:53.905Z,100355.59
2023-11-12T21:37:21.352Z,100366.50
2023-11-12T21:39:48.118Z,100380.09
2023-11-12T21:42:15.951Z,100359.63
2023-11-12T21:44:42.769Z,100383.91
2023-11-12T21:47:09.523Z,100391.06
2023-11-12T21:49:36.658Z,100394.59
2023-11-12T21:52:04.820Z,100399.44
2023-11-12T21:54:31.736Z,100401.03
2023-11-12T21:57:00.796Z,100403.94
2023-11-12T21:59:27.586Z,100402.78
2023-11-12T22:01:54.294Z,100385.63
2023-11-12T22:04:22.791Z,100392.94
2023-11-12T22:06:49.905Z,100381.63
2023-11-12T22:09:17.697Z,100398.81
2023-11-12T22:11:48.189Z,100396.03
2023-11-12T22:14:15.165Z,100401.19
2023-11-12T22:16:48.397Z,100403.78
2023-11-12T22:19:23.614Z,100408.06
2023-11-12T22:21:55.400Z,100412.53
2023-11-12T22:24:35.357Z,100415.50
2023-11-12T22:27:04.137Z,100384.72
2023-11-12T22:29:34.642Z,100383.25
2023-11-12T22:32:11.915Z,100386.53
2023-11-12T22:34:46.248Z,100389.56
2023-11-12T22:37:17.638Z,100393.41
2023-11-12T22:39:47.794Z,100383.50
2023-11-12T22:42:21.948Z,100383.56
2023-11-12T22:44:48.897Z,100382.34
2023-11-12T22:47:15.670Z,100388.03
2023-11-12T22:49:42.577Z,100395.50
2023-11-12T22:52:09.385Z,100379.09
2023-11-12T22:54:36.172Z,100382.72
2023-11-12T22:57:03.133Z,100387.16
2023-11-12T22:59:30.455Z,100399.69
2023-11-12T23:01:57.535Z,100393.56
2023-11-12T23:04:25.570Z,100383.66
2023-11-12T23:06:58.475Z,100378.22
2023-11-12T23:09:29.880Z,100378.06
2023-11-12T23:11:57.252Z,100368.78
2023-11-12T23:14:26.798Z,100357.41
2023-11-12T23:16:55.846Z,100358.06
2023-11-12T23:19:23.571Z,100355.59
2023-11-12T23:21:52.157Z,100345.47
2023-11-12T23:24:22.437Z,100339.59
2023-11-12T23:26:49.721Z,100336.75
2023-11-12T23:29:16.426Z,100346.28
2023-11-12T23:31:43.495Z,100341.41
2023-11-12T23:34:10.238Z,100331.84
2023-11-12T23:36:37.012Z,100346.88
2023-11-12T23:39:04.087Z,100340.41
2023-11-12T23:41:30.891Z,100344.09
2023-11-12T23:43:57.712Z,100338.81
2023-11-12T23:46:24.633Z,100322.94
2023-11-12T23:48:51.610Z,100325.13
2023-11-12T23:51:18.744Z,100320.22
2023-11-12T23:53:46.892Z,100322.34
2023-11-12T23:56:17.977Z,100314.47
2023-11-12T23:58:44.711Z,100312.03
